HRGA4: Little River, Horatio, AR

                                SHEF ID:       HRGA4     Little River near Horatio, AR
STATION TYPE: Stream Gauge
Regulating: Stage = 21.50, Flow = 17539

PRECIP STAGE RIV-FLOW BAT-LOAD
in ft cfs volt
Ccp-Rev Ccp-Rev Ccp-Rev Ccp-Rev
(America/Chicago)
04/30 00:00 0.00 11.76 5971 12.56
04/30 01:00 0.00 11.73 5940 12.54
04/30 02:00 0.00 11.70 5909 12.53
04/30 03:00 0.00 11.70 5909 12.51
04/30 04:00 0.00 11.70 5909 12.49
04/30 05:00 0.00 11.76 5971 12.47
04/30 06:00 0.00 11.83 6043 12.45
04/30 07:00 0.00 11.89 6105 12.44
04/30 08:00 0.00 11.95 6167 12.45
04/30 09:00 0.00 11.95 6167 12.60
04/30 10:00 0.00 11.97 6188 12.93
04/30 11:00 0.00 11.94 6157 13.32
04/30 12:00 0.00 11.90 6115 13.37
04/30 13:00 0.00 11.85 6064 13.16
04/30 14:00 0.00 11.76 5971 13.03
04/30 15:00 0.00 11.67 5879 12.96
04/30 16:00 0.00 11.58 5787 12.92
04/30 17:00 0.00 11.48 5686 12.91
04/30 18:00 0.00 11.38 5585 12.89
04/30 19:00 0.00 11.28 5485 12.88
04/30 20:00 0.00 11.17 5375 12.83
04/30 21:00 0.00 11.07 5276 12.66
04/30 22:00 0.01 10.96 5168 12.60
04/30 23:00 0.01 10.86 5070 12.57
Data processed at Fri 01May2026 04:10 GMT

NOTICE: If you are parsing this page

Please convert to using our Data API. Starting early 2026 we will be migrating to: https://water.usace.army.mil with modern pages rendered in JavaScript. When this migration completes you will no longer be able to scrape this page! CWMSDataAPI (CDA)

Timeseries IDs (TSIDs)

TSIDs used from left to right in the data table
HORA.Precip-Inc.Total.1Hour.1Hour.Ccp-Rev
HORA.Stage.Inst.1Hour.0.Ccp-Rev
HORA.Flow.Inst.1Hour.0.Ccp-Rev
HORA.Volt-Battery Load.Inst.1Hour.0.Ccp-Rev

                            

All information presented herein is the property of the government of the United States of America and may be revised or deleted at any time without prior notice. Dissemination of this information without the expressed written consent of the Public Affairs Office, Tulsa District U.S. Army Corps of Engineers is strictly prohibited. These data are gathered electronically and, as presented, have NOT undergone any form of quality control. These data are NOT guaranteed to be valid or correct.